Time,TemperatureF,DewpointF,PressureIn,WindDirection,WindDirectionDegrees,WindSpeedMPH,WindSpeedGustMPH,Humidity,HourlyPrecipIn,Conditions,Clouds,dailyrainin,SolarRadiationWatts/m^2,SoftwareType,DateUTC
2013-02-24 13:01:00,59.9,25.7,29.70,West,270,6.0,9.1,5,0.00,,,-99.99,0.0,Linux-Irox,2013-02-24 21:01:00,
2013-02-24 13:16:00,59.9,25.7,29.70,West,270,6.9,6.9,5,0.00,,,-99.99,0.0,Linux-Irox,2013-02-24 21:16:00,
2013-02-24 13:31:00,59.5,25.3,29.71,WSW,247,7.1,7.4,5,0.00,,,-99.99,0.0,Linux-Irox,2013-02-24 21:31:00,
2013-02-24 13:46:00,59.9,25.7,29.70,WSW,247,8.7,8.7,5,0.00,,,-99.99,0.0,Linux-Irox,2013-02-24 21:46:00,
2013-02-24 14:01:00,59.7,25.5,29.70,SW,225,6.9,10.0,5,0.00,,,-99.99,0.0,Linux-Irox,2013-02-24 22:01:00,
2013-02-24 14:16:00,59.9,25.7,29.70,SW,225,8.0,8.0,5,0.00,,,-99.99,0.0,Linux-Irox,2013-02-24 22:16:00,
2013-02-24 14:31:00,59.9,25.7,29.70,WSW,247,6.2,10.0,5,0.00,,,-99.99,0.0,Linux-Irox,2013-02-24 22:31:00,
2013-02-24 14:46:00,59.4,25.2,29.69,West,270,5.8,12.9,5,0.00,,,-99.99,0.0,Linux-Irox,2013-02-24 22:46:00,
2013-02-24 15:01:00,59.0,24.8,29.66,NW,315,7.8,7.8,5,0.00,,,-99.99,0.0,Linux-Irox,2013-02-24 23:01:00,
2013-02-24 15:16:00,57.9,23.7,29.66,WSW,247,6.9,9.4,5,0.00,,,-99.99,0.0,Linux-Irox,2013-02-24 23:16:00,
2013-02-24 15:31:00,56.8,22.6,29.69,West,270,7.6,16.5,5,0.00,,,-99.99,0.0,Linux-Irox,2013-02-24 23:31:00,
2013-02-24 15:46:00,55.9,22.1,29.69,SW,225,5.8,5.8,6,0.00,,,-99.99,0.0,Linux-Irox,2013-02-24 23:46:00,
2013-02-24 16:01:00,55.0,21.2,29.69,SW,225,6.0,6.0,6,0.00,,,-99.99,0.0,Linux-Irox,2013-02-25 00:01:00,
2013-02-24 16:16:00,54.7,20.8,29.69,WSW,247,5.8,5.8,6,0.00,,,-99.99,0.0,Linux-Irox,2013-02-25 00:16:00,
2013-02-24 16:31:00,53.8,19.9,29.70,WSW,247,4.7,8.0,6,0.00,,,-99.99,0.0,Linux-Irox,2013-02-25 00:31:00,
2013-02-24 16:46:00,53.2,20.1,29.70,West,270,4.0,4.0,8,0.00,,,-99.99,0.0,Linux-Irox,2013-02-25 00:46:00,
2013-02-24 17:01:00,52.3,19.2,29.71,West,270,3.6,4.7,8,0.00,,,-99.99,0.0,Linux-Irox,2013-02-25 01:01:00,
2013-02-24 17:16:00,51.1,18.3,29.71,WSW,247,3.1,3.1,9,0.00,,,-99.99,0.0,Linux-Irox,2013-02-25 01:16:00,
2013-02-24 17:31:00,49.8,17.4,29.71,WSW,247,0.0,0.0,10,0.00,,,-99.99,0.0,Linux-Irox,2013-02-25 01:31:00,
2013-02-24 17:46:00,48.2,15.8,29.72,NE,45,0.0,0.0,10,0.00,,,-99.99,0.0,Linux-Irox,2013-02-25 01:46:00,
2013-02-24 18:01:00,46.6,14.2,29.71,NNE,22,0.0,0.0,10,0.00,,,-99.99,0.0,Linux-Irox,2013-02-25 02:01:00,
2013-02-24 18:16:00,45.7,13.6,29.71,NE,45,0.0,0.0,11,0.00,,,-99.99,0.0,Linux-Irox,2013-02-25 02:16:00,
2013-02-24 18:31:00,44.4,12.4,29.72,North,0,0.0,0.0,11,0.00,,,-99.99,0.0,Linux-Irox,2013-02-25 02:31:00,
2013-02-24 18:46:00,44.1,12.0,29.72,NNE,22,0.0,0.0,11,0.00,,,-99.99,0.0,Linux-Irox,2013-02-25 02:46:00,
2013-02-24 19:01:00,43.9,11.8,29.72,ENE,67,0.0,0.0,11,0.00,,,-99.99,0.0,Linux-Irox,2013-02-25 03:01:00,
2013-02-24 19:16:00,43.3,11.7,29.72,NW,315,0.0,0.0,12,0.00,,,-99.99,0.0,Linux-Irox,2013-02-25 03:16:00,
2013-02-24 19:31:00,42.1,7.9,29.72,NNE,22,0.0,0.0,5,0.00,,,-99.99,0.0,Linux-Irox,2013-02-25 03:31:00,
2013-02-24 19:46:00,41.7,7.5,29.71,NE,45,0.0,0.0,5,0.00,,,-99.99,0.0,Linux-Irox,2013-02-25 03:46:00,
2013-02-24 20:01:00,42.1,10.0,29.72,NNE,22,0.0,0.0,11,0.00,,,-99.99,0.0,Linux-Irox,2013-02-25 04:01:00,
2013-02-24 22:47:00,39.2,7.2,29.77,ENE,67,0.0,0.0,11,0.00,,,-99.99,0.0,Linux-Irox,2013-02-25 06:47:00,
2013-02-24 22:57:00,39.2,7.2,29.77,NE,45,0.0,0.0,11,0.00,,,-99.99,0.0,Linux-Irox,2013-02-25 06:57:00,
2013-02-24 23:07:00,39.2,7.2,29.78,NE,45,0.0,0.0,11,0.00,,,-99.99,0.0,Linux-Irox,2013-02-25 07:07:00,
2013-02-24 23:17:00,38.8,7.2,29.78,NE,45,0.0,0.0,12,0.00,,,-99.99,0.0,Linux-Irox,2013-02-25 07:17:00,
2013-02-24 23:27:00,38.8,7.2,29.78,NNE,22,0.0,0.0,12,0.00,,,-99.99,0.0,Linux-Irox,2013-02-25 07:27:00,
2013-02-24 23:37:00,39.0,7.3,29.78,NE,45,0.0,0.0,12,0.00,,,-99.99,0.0,Linux-Irox,2013-02-25 07:37:00,
2013-02-24 23:47:00,38.7,7.0,29.78,East,90,0.0,0.0,12,0.00,,,-99.99,0.0,Linux-Irox,2013-02-25 07:47:00,
2013-02-24 23:57:00,37.9,6.3,29.78,ENE,67,0.0,0.0,12,0.00,,,-99.99,0.0,Linux-Irox,2013-02-25 07:57:00,